PWSweather.com
Personal Weather Stations
Station Observations
DEKREUPEL
Wsv De Kreupel, AndijkNL 1619 JV

Wsv De KreupelAndijkNL 1619 JV

Lat: 52.7417364, Lon: 5.1809356

Elevation: 33

Station Type: Rainwise MKiii LR

High Low Average
Temperature 58.7°F14.8°C 52.2°F11.2°C 54.9°F12.7°C
Dew Point 86.5°F30.3°C 79.0°F26.1°C 82.1°F27.8°C
Winds 17.8 mph 28.6 kmh Calm Calm 3.0 mph W4.8 kmh W
Wind Gusts 19.3 mph31.1 kmh -- 4.0 mph6.4 kmh
Humidity - - -
Pressure 30.11 in1019.6 mb 29.94 in1013.9 mb -
Precipitation 0.02 in0.5 mm - -
Hour Temp Dew Point Humidity Winds Wind Gusts Pressure Precip Precip Rate Daily Precip Total
12:04 AM 53.1°F11.7°C 80.2°F26.8°C - Calm Calm -- 30.03 in1016.9 mb 0.00 in0.0 mm 0.00 in0.0 mm 0.00 in0.0 mm
12:09 AM 53.1°F11.7°C 80.2°F26.8°C - Calm Calm -- 30.03 in1016.9 mb 0.00 in0.0 mm 0.00 in0.0 mm 0.00 in0.0 mm
12:14 AM 53.0°F11.7°C 80.1°F26.7°C - Calm Calm -- 30.03 in1016.9 mb 0.00 in0.0 mm 0.00 in0.0 mm 0.00 in0.0 mm
12:19 AM 53.0°F11.7°C 79.9°F26.6°C - Calm Calm -- 30.02 in1016.6 mb 0.00 in0.0 mm 0.00 in0.0 mm 0.00 in0.0 mm
12:24 AM 52.8°F11.6°C 79.8°F26.6°C - Calm Calm -- 30.02 in1016.6 mb 0.00 in0.0 mm 0.00 in0.0 mm 0.00 in0.0 mm
12:29 AM 52.7°F11.5°C 79.7°F26.5°C - Calm Calm -- 30.02 in1016.6 mb 0.00 in0.0 mm 0.00 in0.0 mm 0.00 in0.0 mm
12:34 AM 52.7°F11.5°C 79.7°F26.5°C - Calm Calm -- 30.02 in1016.6 mb 0.00 in0.0 mm 0.00 in0.0 mm 0.00 in0.0 mm
12:39 AM 52.7°F11.5°C 79.7°F26.5°C - Calm Calm -- 30.02 in1016.6 mb 0.00 in0.0 mm 0.00 in0.0 mm 0.00 in0.0 mm
12:44 AM 52.7°F11.5°C 79.7°F26.5°C - Calm Calm -- 30.01 in1016.3 mb 0.00 in0.0 mm 0.00 in0.0 mm 0.00 in0.0 mm
12:49 AM 52.6°F11.4°C 79.6°F26.4°C - Calm Calm -- 30.01 in1016.3 mb 0.00 in0.0 mm 0.00 in0.0 mm 0.00 in0.0 mm
12:54 AM 52.6°F11.4°C 79.5°F26.4°C - Calm Calm -- 30.01 in1016.3 mb 0.00 in0.0 mm 0.00 in0.0 mm 0.00 in0.0 mm
12:59 AM 52.5°F11.4°C 79.5°F26.4°C - Calm Calm -- 30.01 in1016.3 mb 0.00 in0.0 mm 0.00 in0.0 mm 0.00 in0.0 mm
01:04 AM 52.5°F11.4°C 79.5°F26.4°C - Calm Calm -- 30.00 in1015.9 mb 0.00 in0.0 mm 0.00 in0.0 mm 0.00 in0.0 mm
01:09 AM 52.6°F11.4°C 79.6°F26.4°C - Calm Calm -- 30.00 in1015.9 mb 0.00 in0.0 mm 0.00 in0.0 mm 0.00 in0.0 mm
01:14 AM 52.6°F11.4°C 79.6°F26.4°C - Calm Calm -- 30.00 in1015.9 mb 0.00 in0.0 mm 0.00 in0.0 mm 0.00 in0.0 mm
01:19 AM 52.7°F11.5°C 79.7°F26.5°C - Calm Calm -- 30.00 in1015.9 mb 0.00 in0.0 mm 0.00 in0.0 mm 0.00 in0.0 mm
01:24 AM 52.7°F11.5°C 79.7°F26.5°C - Calm Calm -- 30.00 in1015.9 mb 0.00 in0.0 mm 0.00 in0.0 mm 0.00 in0.0 mm
01:29 AM 52.7°F11.5°C 79.6°F26.4°C - Calm Calm -- 30.00 in1015.9 mb 0.00 in0.0 mm 0.00 in0.0 mm 0.00 in0.0 mm
01:34 AM 52.8°F11.6°C 79.8°F26.6°C - Calm Calm -- 29.99 in1015.6 mb 0.00 in0.0 mm 0.00 in0.0 mm 0.00 in0.0 mm
01:39 AM 52.8°F11.6°C 79.8°F26.6°C - Calm Calm -- 29.99 in1015.6 mb 0.00 in0.0 mm 0.00 in0.0 mm 0.00 in0.0 mm
01:44 AM 53.0°F11.7°C 80.1°F26.7°C - Calm Calm -- 29.99 in1015.6 mb 0.00 in0.0 mm 0.00 in0.0 mm 0.00 in0.0 mm
01:49 AM 53.1°F11.7°C 80.2°F26.8°C - Calm Calm -- 29.99 in1015.6 mb 0.00 in0.0 mm 0.00 in0.0 mm 0.00 in0.0 mm
01:54 AM 53.1°F11.7°C 80.1°F26.7°C - Calm Calm -- 29.99 in1015.6 mb 0.00 in0.0 mm 0.00 in0.0 mm 0.00 in0.0 mm
01:59 AM 53.1°F11.7°C 80.2°F26.8°C - Calm Calm -- 29.99 in1015.6 mb 0.00 in0.0 mm 0.00 in0.0 mm 0.00 in0.0 mm
02:04 AM 53.1°F11.7°C 80.2°F26.8°C - Calm Calm -- 29.98 in1015.2 mb 0.00 in0.0 mm 0.00 in0.0 mm 0.00 in0.0 mm
02:09 AM 53.2°F11.8°C 80.3°F26.8°C - Calm Calm -- 29.98 in1015.2 mb 0.00 in0.0 mm 0.00 in0.0 mm 0.00 in0.0 mm
02:14 AM 53.2°F11.8°C 80.3°F26.8°C - Calm Calm -- 29.98 in1015.2 mb 0.00 in0.0 mm 0.00 in0.0 mm 0.00 in0.0 mm
02:19 AM 53.1°F11.7°C 80.1°F26.7°C - Calm Calm -- 29.98 in1015.2 mb 0.00 in0.0 mm 0.00 in0.0 mm 0.00 in0.0 mm
02:24 AM 53.0°F11.7°C 80.1°F26.7°C - Calm Calm -- 29.98 in1015.2 mb 0.00 in0.0 mm 0.00 in0.0 mm 0.00 in0.0 mm
02:29 AM 53.0°F11.7°C 80.1°F26.7°C - Calm Calm -- 29.97 in1014.9 mb 0.00 in0.0 mm 0.00 in0.0 mm 0.00 in0.0 mm
02:34 AM 52.8°F11.6°C 79.8°F26.6°C - Calm Calm -- 29.97 in1014.9 mb 0.00 in0.0 mm 0.00 in0.0 mm 0.00 in0.0 mm
02:39 AM 52.8°F11.6°C 79.8°F26.6°C - Calm Calm -- 29.97 in1014.9 mb 0.00 in0.0 mm 0.00 in0.0 mm 0.00 in0.0 mm
02:44 AM 52.9°F11.6°C 79.8°F26.6°C - Calm Calm -- 29.97 in1014.9 mb 0.00 in0.0 mm 0.00 in0.0 mm 0.00 in0.0 mm
02:49 AM 53.0°F11.7°C 80.1°F26.7°C - Calm Calm -- 29.97 in1014.9 mb 0.00 in0.0 mm 0.00 in0.0 mm 0.00 in0.0 mm
02:54 AM 53.0°F11.7°C 80.1°F26.7°C - Calm Calm -- 29.97 in1014.9 mb 0.00 in0.0 mm 0.00 in0.0 mm 0.00 in0.0 mm
02:59 AM 53.0°F11.7°C 80.1°F26.7°C - Calm Calm -- 29.97 in1014.9 mb 0.00 in0.0 mm 0.00 in0.0 mm 0.00 in0.0 mm
03:04 AM 53.1°F11.7°C 80.1°F26.7°C - Calm Calm -- 29.96 in1014.6 mb 0.00 in0.0 mm 0.00 in0.0 mm 0.00 in0.0 mm
03:09 AM 53.1°F11.7°C 80.2°F26.8°C - Calm Calm -- 29.96 in1014.6 mb 0.00 in0.0 mm 0.00 in0.0 mm 0.00 in0.0 mm
03:14 AM 53.1°F11.7°C 80.1°F26.7°C - Calm Calm -- 29.96 in1014.6 mb 0.00 in0.0 mm 0.00 in0.0 mm 0.00 in0.0 mm
03:19 AM 53.1°F11.7°C 80.2°F26.8°C - Calm Calm -- 29.96 in1014.6 mb 0.00 in0.0 mm 0.00 in0.0 mm 0.00 in0.0 mm
03:24 AM 53.1°F11.7°C 80.1°F26.7°C - Calm Calm -- 29.96 in1014.6 mb 0.00 in0.0 mm 0.00 in0.0 mm 0.00 in0.0 mm
03:29 AM 53.1°F11.7°C 80.2°F26.8°C - Calm Calm -- 29.96 in1014.6 mb 0.00 in0.0 mm 0.00 in0.0 mm 0.00 in0.0 mm
03:34 AM 53.2°F11.8°C 80.3°F26.8°C - Calm Calm -- 29.96 in1014.6 mb 0.00 in0.0 mm 0.00 in0.0 mm 0.00 in0.0 mm
03:39 AM 53.2°F11.8°C 80.3°F26.8°C - Calm Calm -- 29.96 in1014.6 mb 0.00 in0.0 mm 0.00 in0.0 mm 0.00 in0.0 mm
03:44 AM 53.2°F11.8°C 80.3°F26.8°C - Calm Calm -- 29.96 in1014.6 mb 0.00 in0.0 mm 0.00 in0.0 mm 0.00 in0.0 mm
03:49 AM 53.3°F11.8°C 80.4°F26.9°C - Calm Calm -- 29.96 in1014.6 mb 0.00 in0.0 mm 0.00 in0.0 mm 0.00 in0.0 mm
03:54 AM 53.5°F11.9°C 80.6°F27.0°C - Calm Calm -- 29.96 in1014.6 mb 0.00 in0.0 mm 0.00 in0.0 mm 0.00 in0.0 mm
03:59 AM 53.6°F12.0°C 80.7°F27.1°C - Calm Calm -- 29.95 in1014.2 mb 0.00 in0.0 mm 0.00 in0.0 mm 0.00 in0.0 mm
04:04 AM 53.6°F12.0°C 80.6°F27.0°C - Calm Calm -- 29.95 in1014.2 mb 0.00 in0.0 mm 0.00 in0.0 mm 0.00 in0.0 mm
04:09 AM 53.7°F12.1°C 80.8°F27.1°C - Calm Calm -- 29.95 in1014.2 mb 0.00 in0.0 mm 0.00 in0.0 mm 0.00 in0.0 mm
04:14 AM 53.7°F12.1°C 80.8°F27.1°C - Calm Calm -- 29.95 in1014.2 mb 0.00 in0.0 mm 0.00 in0.0 mm 0.00 in0.0 mm
04:19 AM 53.7°F12.1°C 80.8°F27.1°C - Calm Calm -- 29.95 in1014.2 mb 0.00 in0.0 mm 0.00 in0.0 mm 0.00 in0.0 mm
04:24 AM 53.8°F12.1°C 80.8°F27.1°C - Calm Calm -- 29.95 in1014.2 mb 0.00 in0.0 mm 0.00 in0.0 mm 0.00 in0.0 mm
04:29 AM 54.0°F12.2°C 81.2°F27.3°C - Calm Calm 0.6 mph1.0 kmh 29.95 in1014.2 mb 0.00 in0.0 mm 0.00 in0.0 mm 0.00 in0.0 mm
04:34 AM 54.0°F12.2°C 81.2°F27.3°C - Calm Calm -- 29.95 in1014.2 mb 0.00 in0.0 mm 0.00 in0.0 mm 0.00 in0.0 mm
04:39 AM 53.8°F12.1°C 81.0°F27.2°C - Calm Calm -- 29.95 in1014.2 mb 0.00 in0.0 mm 0.00 in0.0 mm 0.00 in0.0 mm
04:44 AM 53.7°F12.1°C 80.8°F27.1°C - Calm Calm -- 29.95 in1014.2 mb 0.00 in0.0 mm 0.00 in0.0 mm 0.00 in0.0 mm
04:49 AM 53.7°F12.1°C 80.8°F27.1°C - Calm Calm -- 29.94 in1013.9 mb 0.00 in0.0 mm 0.00 in0.0 mm 0.00 in0.0 mm
04:54 AM 54.0°F12.2°C 81.1°F27.3°C - Calm Calm -- 29.95 in1014.2 mb 0.00 in0.0 mm 0.00 in0.0 mm 0.00 in0.0 mm
04:59 AM 54.4°F12.4°C 81.6°F27.6°C - Calm Calm -- 29.95 in1014.2 mb 0.00 in0.0 mm 0.00 in0.0 mm 0.00 in0.0 mm
05:04 AM 54.7°F12.6°C 81.9°F27.7°C - Calm Calm -- 29.95 in1014.2 mb 0.00 in0.0 mm 0.00 in0.0 mm 0.00 in0.0 mm
05:09 AM 54.7°F12.6°C 82.0°F27.8°C - Calm Calm -- 29.95 in1014.2 mb 0.00 in0.0 mm 0.00 in0.0 mm 0.00 in0.0 mm
05:14 AM 54.7°F12.6°C 81.9°F27.7°C - Calm Calm -- 29.95 in1014.2 mb 0.00 in0.0 mm 0.00 in0.0 mm 0.00 in0.0 mm
05:19 AM 54.7°F12.6°C 81.9°F27.7°C - Calm Calm -- 29.95 in1014.2 mb 0.00 in0.0 mm 0.00 in0.0 mm 0.00 in0.0 mm
05:24 AM 54.7°F12.6°C 82.0°F27.8°C - Calm Calm -- 29.94 in1013.9 mb 0.00 in0.0 mm 0.00 in0.0 mm 0.00 in0.0 mm
05:29 AM 54.7°F12.6°C 81.9°F27.7°C - Calm Calm -- 29.94 in1013.9 mb 0.00 in0.0 mm 0.00 in0.0 mm 0.00 in0.0 mm
05:34 AM 54.7°F12.6°C 81.9°F27.7°C - Calm Calm -- 29.94 in1013.9 mb 0.00 in0.0 mm 0.00 in0.0 mm 0.00 in0.0 mm
05:39 AM 54.5°F12.5°C 81.6°F27.6°C - Calm Calm -- 29.94 in1013.9 mb 0.00 in0.0 mm 0.00 in0.0 mm 0.00 in0.0 mm
05:44 AM 54.5°F12.5°C 81.7°F27.6°C - Calm Calm -- 29.95 in1014.2 mb 0.00 in0.0 mm 0.00 in0.0 mm 0.00 in0.0 mm
05:49 AM 54.5°F12.5°C 81.7°F27.6°C - Calm Calm -- 29.94 in1013.9 mb 0.00 in0.0 mm 0.00 in0.0 mm 0.00 in0.0 mm
05:54 AM 54.5°F12.5°C 81.6°F27.6°C - Calm Calm -- 29.94 in1013.9 mb 0.00 in0.0 mm 0.00 in0.0 mm 0.00 in0.0 mm
05:59 AM 54.5°F12.5°C 81.6°F27.6°C - Calm Calm -- 29.94 in1013.9 mb 0.00 in0.0 mm 0.00 in0.0 mm 0.00 in0.0 mm
06:04 AM 54.5°F12.5°C 81.7°F27.6°C - Calm Calm -- 29.94 in1013.9 mb 0.00 in0.0 mm 0.00 in0.0 mm 0.00 in0.0 mm
06:09 AM 54.5°F12.5°C 81.6°F27.6°C - Calm Calm -- 29.94 in1013.9 mb 0.00 in0.0 mm 0.00 in0.0 mm 0.00 in0.0 mm
06:14 AM 54.5°F12.5°C 81.7°F27.6°C - Calm Calm -- 29.94 in1013.9 mb 0.00 in0.0 mm 0.00 in0.0 mm 0.00 in0.0 mm
06:19 AM 54.6°F12.6°C 81.9°F27.7°C - Calm Calm -- 29.94 in1013.9 mb 0.00 in0.0 mm 0.00 in0.0 mm 0.00 in0.0 mm
06:24 AM 54.5°F12.5°C 81.7°F27.6°C - Calm Calm -- 29.94 in1013.9 mb 0.00 in0.0 mm 0.00 in0.0 mm 0.00 in0.0 mm
06:29 AM 54.5°F12.5°C 81.6°F27.6°C - 0.1 mph W0.2 kmh W 1.3 mph2.1 kmh 29.94 in1013.9 mb 0.00 in0.0 mm 0.00 in0.0 mm 0.00 in0.0 mm
06:34 AM 54.6°F12.6°C 81.9°F27.7°C - 0.2 mph W0.3 kmh W 1.4 mph2.3 kmh 29.94 in1013.9 mb 0.00 in0.0 mm 0.00 in0.0 mm 0.00 in0.0 mm
06:39 AM 54.6°F12.6°C 81.9°F27.7°C - 0.1 mph W0.2 kmh W 1.0 mph1.6 kmh 29.94 in1013.9 mb 0.00 in0.0 mm 0.00 in0.0 mm 0.00 in0.0 mm
06:44 AM 54.6°F12.6°C 81.9°F27.7°C - Calm Calm 0.3 mph0.5 kmh 29.95 in1014.2 mb 0.00 in0.0 mm 0.00 in0.0 mm 0.00 in0.0 mm
06:49 AM 54.6°F12.6°C 81.9°F27.7°C - Calm Calm 1.2 mph1.9 kmh 29.94 in1013.9 mb 0.00 in0.0 mm 0.00 in0.0 mm 0.00 in0.0 mm
06:54 AM 54.6°F12.6°C 81.9°F27.7°C - Calm Calm -- 29.95 in1014.2 mb 0.00 in0.0 mm 0.00 in0.0 mm 0.00 in0.0 mm
06:59 AM 54.6°F12.6°C 81.9°F27.7°C - Calm Calm -- 29.95 in1014.2 mb 0.00 in0.0 mm 0.00 in0.0 mm 0.00 in0.0 mm
07:04 AM 54.5°F12.5°C 81.7°F27.6°C - Calm Calm -- 29.95 in1014.2 mb 0.00 in0.0 mm 0.00 in0.0 mm 0.00 in0.0 mm
07:09 AM 54.5°F12.5°C 81.7°F27.6°C - Calm Calm -- 29.94 in1013.9 mb 0.00 in0.0 mm 0.00 in0.0 mm 0.00 in0.0 mm
07:14 AM 54.6°F12.6°C 81.9°F27.7°C - Calm Calm -- 29.94 in1013.9 mb 0.00 in0.0 mm 0.00 in0.0 mm 0.00 in0.0 mm
07:19 AM 54.5°F12.5°C 81.7°F27.6°C - Calm Calm -- 29.95 in1014.2 mb 0.00 in0.0 mm 0.00 in0.0 mm 0.00 in0.0 mm
07:24 AM 54.4°F12.4°C 81.6°F27.6°C - Calm Calm -- 29.95 in1014.2 mb 0.00 in0.0 mm 0.00 in0.0 mm 0.00 in0.0 mm
07:29 AM 54.3°F12.4°C 81.4°F27.4°C - Calm Calm -- 29.95 in1014.2 mb 0.00 in0.0 mm 0.00 in0.0 mm 0.00 in0.0 mm
07:34 AM 54.2°F12.3°C 81.4°F27.4°C - Calm Calm -- 29.95 in1014.2 mb 0.00 in0.0 mm 0.00 in0.0 mm 0.00 in0.0 mm
07:39 AM 54.3°F12.4°C 81.5°F27.5°C - Calm Calm -- 29.95 in1014.2 mb 0.00 in0.0 mm 0.00 in0.0 mm 0.00 in0.0 mm
07:44 AM 54.6°F12.6°C 81.9°F27.7°C - Calm Calm -- 29.95 in1014.2 mb 0.00 in0.0 mm 0.00 in0.0 mm 0.00 in0.0 mm
07:49 AM 54.7°F12.6°C 81.9°F27.7°C - Calm Calm -- 29.95 in1014.2 mb 0.00 in0.0 mm 0.00 in0.0 mm 0.00 in0.0 mm
07:54 AM 54.8°F12.7°C 82.1°F27.8°C - Calm Calm -- 29.96 in1014.6 mb 0.00 in0.0 mm 0.00 in0.0 mm 0.00 in0.0 mm
07:59 AM 55.0°F12.8°C 82.2°F27.9°C - Calm Calm -- 29.96 in1014.6 mb 0.00 in0.0 mm 0.00 in0.0 mm 0.00 in0.0 mm
08:04 AM 55.2°F12.9°C 82.4°F28.0°C - Calm Calm -- 29.96 in1014.6 mb 0.00 in0.0 mm 0.00 in0.0 mm 0.00 in0.0 mm
08:09 AM 55.2°F12.9°C 82.5°F28.1°C - Calm Calm -- 29.96 in1014.6 mb 0.00 in0.0 mm 0.00 in0.0 mm 0.00 in0.0 mm
08:14 AM 55.3°F12.9°C 82.6°F28.1°C - Calm Calm -- 29.96 in1014.6 mb 0.00 in0.0 mm 0.00 in0.0 mm 0.00 in0.0 mm
08:19 AM 55.5°F13.1°C 82.9°F28.3°C - Calm Calm 0.3 mph0.5 kmh 29.96 in1014.6 mb 0.00 in0.0 mm 0.00 in0.0 mm 0.00 in0.0 mm
08:24 AM 55.6°F13.1°C 83.0°F28.3°C - Calm Calm -- 29.96 in1014.6 mb 0.00 in0.0 mm 0.00 in0.0 mm 0.00 in0.0 mm
08:29 AM 55.6°F13.1°C 83.0°F28.3°C - Calm Calm -- 29.96 in1014.6 mb 0.00 in0.0 mm 0.00 in0.0 mm 0.00 in0.0 mm
08:34 AM 55.6°F13.1°C 83.0°F28.3°C - Calm Calm -- 29.97 in1014.9 mb 0.00 in0.0 mm 0.00 in0.0 mm 0.00 in0.0 mm
08:39 AM 55.7°F13.2°C 83.1°F28.4°C - Calm Calm -- 29.97 in1014.9 mb 0.00 in0.0 mm 0.00 in0.0 mm 0.00 in0.0 mm
08:44 AM 55.8°F13.2°C 83.2°F28.4°C - Calm Calm -- 29.97 in1014.9 mb 0.00 in0.0 mm 0.00 in0.0 mm 0.00 in0.0 mm
08:49 AM 56.1°F13.4°C 83.5°F28.6°C - Calm Calm 0.4 mph0.6 kmh 29.97 in1014.9 mb 0.00 in0.0 mm 0.00 in0.0 mm 0.00 in0.0 mm
08:54 AM 56.2°F13.4°C 83.5°F28.6°C - Calm Calm -- 29.97 in1014.9 mb 0.00 in0.0 mm 0.00 in0.0 mm 0.00 in0.0 mm
08:59 AM 56.2°F13.4°C 83.7°F28.7°C - 0.1 mph WSW0.2 kmh WSW 1.2 mph1.9 kmh 29.97 in1014.9 mb 0.00 in0.0 mm 0.00 in0.0 mm 0.00 in0.0 mm
09:04 AM 56.2°F13.4°C 83.5°F28.6°C - Calm Calm -- 29.97 in1014.9 mb 0.00 in0.0 mm 0.00 in0.0 mm 0.00 in0.0 mm
09:09 AM 56.2°F13.4°C 83.7°F28.7°C - Calm Calm -- 29.97 in1014.9 mb 0.00 in0.0 mm 0.00 in0.0 mm 0.00 in0.0 mm
09:14 AM 56.3°F13.5°C 83.8°F28.8°C - Calm Calm -- 29.97 in1014.9 mb 0.00 in0.0 mm 0.00 in0.0 mm 0.00 in0.0 mm
09:19 AM 56.5°F13.6°C 84.0°F28.9°C - 1.4 mph W2.3 kmh W 3.5 mph5.6 kmh 29.98 in1015.2 mb 0.00 in0.0 mm 0.00 in0.0 mm 0.00 in0.0 mm
09:24 AM 56.7°F13.7°C 84.2°F29.0°C - 0.1 mph W0.2 kmh W 1.8 mph2.9 kmh 29.98 in1015.2 mb 0.00 in0.0 mm 0.00 in0.0 mm 0.00 in0.0 mm
09:29 AM 56.9°F13.8°C 84.4°F29.1°C - 0.2 mph W0.3 kmh W 2.3 mph3.7 kmh 29.97 in1014.9 mb 0.00 in0.0 mm 0.00 in0.0 mm 0.00 in0.0 mm
09:34 AM 57.1°F13.9°C 84.7°F29.3°C - Calm Calm -- 29.97 in1014.9 mb 0.00 in0.0 mm 0.00 in0.0 mm 0.00 in0.0 mm
09:39 AM 57.2°F14.0°C 84.7°F29.3°C - 0.1 mph W0.2 kmh W 1.3 mph2.1 kmh 29.98 in1015.2 mb 0.00 in0.0 mm 0.00 in0.0 mm 0.00 in0.0 mm
09:44 AM 57.4°F14.1°C 85.0°F29.4°C - 0.2 mph WNW0.3 kmh WNW 2.0 mph3.2 kmh 29.98 in1015.2 mb 0.00 in0.0 mm 0.00 in0.0 mm 0.00 in0.0 mm
09:49 AM 57.7°F14.3°C 85.3°F29.6°C - 0.3 mph W0.5 kmh W 1.9 mph3.1 kmh 29.98 in1015.2 mb 0.00 in0.0 mm 0.00 in0.0 mm 0.00 in0.0 mm
09:54 AM 57.9°F14.4°C 85.6°F29.8°C - 0.1 mph WNW0.2 kmh WNW 2.7 mph4.3 kmh 29.98 in1015.2 mb 0.00 in0.0 mm 0.00 in0.0 mm 0.00 in0.0 mm
09:59 AM 58.1°F14.5°C 85.8°F29.9°C - 0.3 mph WNW0.5 kmh WNW 4.2 mph6.8 kmh 29.98 in1015.2 mb 0.00 in0.0 mm 0.00 in0.0 mm 0.00 in0.0 mm
10:04 AM 58.2°F14.6°C 85.8°F29.9°C - Calm Calm 0.5 mph0.8 kmh 29.99 in1015.6 mb 0.00 in0.0 mm 0.00 in0.0 mm 0.00 in0.0 mm
10:09 AM 58.4°F14.7°C 86.1°F30.1°C - 1.9 mph WNW3.1 kmh WNW 4.9 mph7.9 kmh 29.98 in1015.2 mb 0.00 in0.0 mm 0.00 in0.0 mm 0.00 in0.0 mm
10:14 AM 58.5°F14.7°C 86.2°F30.1°C - 0.6 mph WNW1.0 kmh WNW 4.3 mph6.9 kmh 29.99 in1015.6 mb 0.00 in0.0 mm 0.00 in0.0 mm 0.00 in0.0 mm
10:19 AM 58.6°F14.8°C 86.4°F30.2°C - Calm Calm 0.3 mph0.5 kmh 29.99 in1015.6 mb 0.00 in0.0 mm 0.00 in0.0 mm 0.00 in0.0 mm
10:24 AM 58.6°F14.8°C 86.4°F30.2°C - Calm Calm -- 29.99 in1015.6 mb 0.00 in0.0 mm 0.00 in0.0 mm 0.00 in0.0 mm
10:29 AM 58.7°F14.8°C 86.5°F30.3°C - 0.3 mph WNW0.5 kmh WNW 2.0 mph3.2 kmh 29.99 in1015.6 mb 0.00 in0.0 mm 0.00 in0.0 mm 0.00 in0.0 mm
10:34 AM 58.7°F14.8°C 86.4°F30.2°C - Calm Calm -- 29.99 in1015.6 mb 0.00 in0.0 mm 0.00 in0.0 mm 0.00 in0.0 mm
10:39 AM 58.6°F14.8°C 86.4°F30.2°C - Calm Calm -- 29.99 in1015.6 mb 0.00 in0.0 mm 0.00 in0.0 mm 0.00 in0.0 mm
10:44 AM 58.7°F14.8°C 86.4°F30.2°C - 0.2 mph WNW0.3 kmh WNW 3.2 mph5.1 kmh 30.00 in1015.9 mb 0.00 in0.0 mm 0.00 in0.0 mm 0.00 in0.0 mm
10:49 AM 58.7°F14.8°C 86.5°F30.3°C - 8.3 mph WNW13.4 kmh WNW 10.1 mph16.3 kmh 30.00 in1015.9 mb 0.00 in0.0 mm 0.00 in0.0 mm 0.00 in0.0 mm
10:54 AM 58.6°F14.8°C 86.2°F30.1°C - 10.8 mph WNW17.4 kmh WNW 12.9 mph20.8 kmh 30.00 in1015.9 mb 0.00 in0.0 mm 0.00 in0.0 mm 0.00 in0.0 mm
10:59 AM 58.6°F14.8°C 86.4°F30.2°C - 1.7 mph WNW2.7 kmh WNW 6.8 mph10.9 kmh 30.00 in1015.9 mb 0.00 in0.0 mm 0.00 in0.0 mm 0.00 in0.0 mm
11:04 AM 58.5°F14.7°C 86.1°F30.1°C - 7.5 mph WNW12.1 kmh WNW 10.6 mph17.1 kmh 30.00 in1015.9 mb 0.00 in0.0 mm 0.00 in0.0 mm 0.00 in0.0 mm
11:09 AM 58.6°F14.8°C 86.4°F30.2°C - 9.3 mph WNW15.0 kmh WNW 10.5 mph16.9 kmh 30.00 in1015.9 mb 0.00 in0.0 mm 0.00 in0.0 mm 0.00 in0.0 mm
11:14 AM 58.6°F14.8°C 86.2°F30.1°C - 6.9 mph WNW11.1 kmh WNW 12.2 mph19.6 kmh 30.00 in1015.9 mb 0.00 in0.0 mm 0.00 in0.0 mm 0.00 in0.0 mm
11:19 AM 58.5°F14.7°C 86.2°F30.1°C - 15.3 mph NW24.6 kmh NW 17.0 mph27.4 kmh 30.00 in1015.9 mb 0.00 in0.0 mm 0.00 in0.0 mm 0.00 in0.0 mm
11:24 AM 58.5°F14.7°C 86.2°F30.1°C - 11.1 mph NW17.9 kmh NW 13.2 mph21.2 kmh 30.00 in1015.9 mb 0.00 in0.0 mm 0.00 in0.0 mm 0.00 in0.0 mm
11:29 AM 58.6°F14.8°C 86.4°F30.2°C - 7.2 mph WNW11.6 kmh WNW 14.2 mph22.9 kmh 30.00 in1015.9 mb 0.00 in0.0 mm 0.00 in0.0 mm 0.00 in0.0 mm
11:34 AM 58.6°F14.8°C 86.4°F30.2°C - 13.7 mph WNW22.0 kmh WNW 15.3 mph24.6 kmh 30.00 in1015.9 mb 0.00 in0.0 mm 0.00 in0.0 mm 0.00 in0.0 mm
11:39 AM 58.5°F14.7°C 86.1°F30.1°C - 12.8 mph NW20.6 kmh NW 14.9 mph24.0 kmh 30.00 in1015.9 mb 0.00 in0.0 mm 0.00 in0.0 mm 0.00 in0.0 mm
11:44 AM 58.3°F14.6°C 86.0°F30.0°C - 3.8 mph NW6.1 kmh NW 9.3 mph15.0 kmh 30.00 in1015.9 mb 0.00 in0.0 mm 0.00 in0.0 mm 0.00 in0.0 mm
11:49 AM 58.2°F14.6°C 85.8°F29.9°C - Calm Calm -- 30.00 in1015.9 mb 0.00 in0.0 mm 0.00 in0.0 mm 0.00 in0.0 mm
11:54 AM 58.2°F14.6°C 85.9°F29.9°C - 6.9 mph WNW11.1 kmh WNW 9.2 mph14.8 kmh 29.99 in1015.6 mb 0.00 in0.0 mm 0.00 in0.0 mm 0.00 in0.0 mm
11:59 AM 58.3°F14.6°C 86.0°F30.0°C - 13.5 mph NW21.7 kmh NW 15.1 mph24.3 kmh 29.99 in1015.6 mb 0.00 in0.0 mm 0.00 in0.0 mm 0.00 in0.0 mm
12:04 PM 58.5°F14.7°C 86.2°F30.1°C - 6.4 mph NW10.3 kmh NW 14.8 mph23.8 kmh 29.99 in1015.6 mb 0.00 in0.0 mm 0.00 in0.0 mm 0.00 in0.0 mm
12:09 PM 58.2°F14.6°C 85.8°F29.9°C - 15.7 mph NW25.3 kmh NW 16.9 mph27.2 kmh 29.99 in1015.6 mb 0.00 in0.0 mm 0.00 in0.0 mm 0.00 in0.0 mm
12:14 PM 58.0°F14.4°C 85.7°F29.8°C - 14.2 mph NW22.9 kmh NW 15.7 mph25.3 kmh 30.00 in1015.9 mb 0.00 in0.0 mm 0.00 in0.0 mm 0.00 in0.0 mm
12:19 PM 58.1°F14.5°C 85.7°F29.8°C - 14.5 mph NW23.3 kmh NW 15.8 mph25.4 kmh 29.99 in1015.6 mb 0.00 in0.0 mm 0.00 in0.0 mm 0.00 in0.0 mm
12:24 PM 58.1°F14.5°C 85.7°F29.8°C - 17.8 mph NW28.6 kmh NW 19.3 mph31.1 kmh 29.99 in1015.6 mb 0.00 in0.0 mm 0.00 in0.0 mm 0.00 in0.0 mm
12:29 PM 57.8°F14.3°C 85.5°F29.7°C - 14.7 mph NW23.7 kmh NW 16.0 mph25.7 kmh 30.00 in1015.9 mb 0.00 in0.0 mm 0.00 in0.0 mm 0.00 in0.0 mm
12:34 PM 57.7°F14.3°C 85.2°F29.6°C - 11.7 mph NW18.8 kmh NW 12.5 mph20.1 kmh 30.00 in1015.9 mb 0.00 in0.0 mm 0.00 in0.0 mm 0.00 in0.0 mm
12:39 PM 57.9°F14.4°C 85.6°F29.8°C - 12.2 mph NW19.6 kmh NW 15.3 mph24.6 kmh 30.00 in1015.9 mb 0.00 in0.0 mm 0.00 in0.0 mm 0.00 in0.0 mm
12:44 PM 58.1°F14.5°C 85.8°F29.9°C - 16.9 mph WNW27.2 kmh WNW 18.9 mph30.4 kmh 30.00 in1015.9 mb 0.00 in0.0 mm 0.00 in0.0 mm 0.00 in0.0 mm
12:49 PM 58.1°F14.5°C 85.8°F29.9°C - 15.5 mph NW24.9 kmh NW 17.0 mph27.4 kmh 29.99 in1015.6 mb 0.00 in0.0 mm 0.00 in0.0 mm 0.00 in0.0 mm
12:54 PM 58.0°F14.4°C 85.7°F29.8°C - 16.0 mph NW25.7 kmh NW 17.7 mph28.5 kmh 30.00 in1015.9 mb 0.00 in0.0 mm 0.00 in0.0 mm 0.00 in0.0 mm
12:59 PM 57.9°F14.4°C 85.5°F29.7°C - 15.4 mph NW24.8 kmh NW 16.9 mph27.2 kmh 30.00 in1015.9 mb 0.00 in0.0 mm 0.00 in0.0 mm 0.00 in0.0 mm
01:04 PM 58.0°F14.4°C 85.7°F29.8°C - 16.4 mph WNW26.4 kmh WNW 18.9 mph30.4 kmh 30.00 in1015.9 mb 0.00 in0.0 mm 0.00 in0.0 mm 0.00 in0.0 mm
01:09 PM 58.0°F14.4°C 85.7°F29.8°C - 17.1 mph WNW27.5 kmh WNW 19.2 mph30.9 kmh 30.00 in1015.9 mb 0.00 in0.0 mm 0.00 in0.0 mm 0.00 in0.0 mm
01:14 PM 57.8°F14.3°C 85.5°F29.7°C - 15.1 mph NW24.3 kmh NW 16.8 mph27.0 kmh 30.00 in1015.9 mb 0.00 in0.0 mm 0.00 in0.0 mm 0.00 in0.0 mm
01:19 PM 57.7°F14.3°C 85.3°F29.6°C - 14.6 mph WNW23.5 kmh WNW 16.5 mph26.6 kmh 30.00 in1015.9 mb 0.00 in0.0 mm 0.00 in0.0 mm 0.00 in0.0 mm
01:24 PM 57.7°F14.3°C 85.2°F29.6°C - 15.5 mph WNW24.9 kmh WNW 17.5 mph28.2 kmh 30.00 in1015.9 mb 0.00 in0.0 mm 0.00 in0.0 mm 0.00 in0.0 mm
01:29 PM 57.7°F14.3°C 85.2°F29.6°C - 15.9 mph NW25.6 kmh NW 17.6 mph28.3 kmh 30.00 in1015.9 mb 0.00 in0.0 mm 0.00 in0.0 mm 0.00 in0.0 mm
01:34 PM 57.8°F14.3°C 85.5°F29.7°C - 14.1 mph NW22.7 kmh NW 16.3 mph26.2 kmh 30.00 in1015.9 mb 0.00 in0.0 mm 0.00 in0.0 mm 0.00 in0.0 mm
01:39 PM 57.7°F14.3°C 85.3°F29.6°C - 16.3 mph NW26.2 kmh NW 17.9 mph28.8 kmh 30.00 in1015.9 mb 0.00 in0.0 mm 0.00 in0.0 mm 0.00 in0.0 mm
01:44 PM 57.7°F14.3°C 85.3°F29.6°C - 15.1 mph NW24.3 kmh NW 16.1 mph25.9 kmh 30.00 in1015.9 mb 0.00 in0.0 mm 0.00 in0.0 mm 0.00 in0.0 mm
01:49 PM 57.7°F14.3°C 85.3°F29.6°C - 14.7 mph NW23.7 kmh NW 16.3 mph26.2 kmh 30.00 in1015.9 mb 0.00 in0.0 mm 0.00 in0.0 mm 0.00 in0.0 mm
01:54 PM 57.7°F14.3°C 85.3°F29.6°C - 13.9 mph NW22.4 kmh NW 15.6 mph25.1 kmh 30.00 in1015.9 mb 0.00 in0.0 mm 0.00 in0.0 mm 0.00 in0.0 mm
01:59 PM 57.7°F14.3°C 85.2°F29.6°C - 14.4 mph NW23.2 kmh NW 16.6 mph26.7 kmh 30.00 in1015.9 mb 0.00 in0.0 mm 0.00 in0.0 mm 0.00 in0.0 mm
02:04 PM 57.7°F14.3°C 85.2°F29.6°C - 13.4 mph NNW21.6 kmh NNW 15.1 mph24.3 kmh 30.01 in1016.3 mb 0.00 in0.0 mm 0.00 in0.0 mm 0.00 in0.0 mm
02:09 PM 57.4°F14.1°C 84.9°F29.4°C - 13.4 mph NNW21.6 kmh NNW 15.2 mph24.5 kmh 30.01 in1016.3 mb 0.00 in0.0 mm 0.00 in0.0 mm 0.00 in0.0 mm
02:14 PM 56.7°F13.7°C 84.1°F28.9°C - 12.1 mph NNW19.5 kmh NNW 13.0 mph20.9 kmh 30.01 in1016.3 mb 0.00 in0.0 mm 0.00 in0.0 mm 0.00 in0.0 mm
02:19 PM 56.3°F13.5°C 83.8°F28.8°C - 9.9 mph N15.9 kmh N 10.8 mph17.4 kmh 30.01 in1016.3 mb 0.00 in0.0 mm 0.00 in0.0 mm 0.00 in0.0 mm
02:24 PM 56.5°F13.6°C 84.0°F28.9°C - 9.2 mph N14.8 kmh N 10.0 mph16.1 kmh 30.01 in1016.3 mb 0.00 in0.0 mm 0.00 in0.0 mm 0.00 in0.0 mm
02:29 PM 56.5°F13.6°C 84.0°F28.9°C - 8.1 mph N13.0 kmh N 8.7 mph14.0 kmh 30.01 in1016.3 mb 0.00 in0.0 mm 0.00 in0.0 mm 0.00 in0.0 mm
02:34 PM 56.5°F13.6°C 84.0°F28.9°C - 5.9 mph N9.5 kmh N 6.3 mph10.1 kmh 30.02 in1016.6 mb 0.00 in0.0 mm 0.00 in0.0 mm 0.00 in0.0 mm
02:39 PM 56.6°F13.7°C 84.1°F28.9°C - 5.1 mph N8.2 kmh N 5.4 mph8.7 kmh 30.01 in1016.3 mb 0.00 in0.0 mm 0.00 in0.0 mm 0.00 in0.0 mm
02:44 PM 56.9°F13.8°C 84.3°F29.1°C - 4.7 mph N7.6 kmh N 5.1 mph8.2 kmh 30.01 in1016.3 mb 0.00 in0.0 mm 0.00 in0.0 mm 0.00 in0.0 mm
02:49 PM 57.2°F14.0°C 84.8°F29.3°C - 4.2 mph N6.8 kmh N 4.8 mph7.7 kmh 30.01 in1016.3 mb 0.00 in0.0 mm 0.00 in0.0 mm 0.00 in0.0 mm
02:54 PM 57.2°F14.0°C 84.8°F29.3°C - 4.2 mph N6.8 kmh N 4.7 mph7.6 kmh 30.01 in1016.3 mb 0.00 in0.0 mm 0.00 in0.0 mm 0.00 in0.0 mm
02:59 PM 57.1°F13.9°C 84.7°F29.3°C - 7.4 mph NNW11.9 kmh NNW 8.1 mph13.0 kmh 30.01 in1016.3 mb 0.00 in0.0 mm 0.00 in0.0 mm 0.00 in0.0 mm
03:04 PM 57.0°F13.9°C 84.4°F29.1°C - 8.4 mph NW13.5 kmh NW 9.1 mph14.6 kmh 30.01 in1016.3 mb 0.00 in0.0 mm 0.00 in0.0 mm 0.00 in0.0 mm
03:09 PM 57.0°F13.9°C 84.4°F29.1°C - 7.1 mph NW11.4 kmh NW 7.5 mph12.1 kmh 30.01 in1016.3 mb 0.00 in0.0 mm 0.00 in0.0 mm 0.00 in0.0 mm
03:14 PM 57.1°F13.9°C 84.7°F29.3°C - 8.2 mph NNW13.2 kmh NNW 9.0 mph14.5 kmh 30.02 in1016.6 mb 0.00 in0.0 mm 0.00 in0.0 mm 0.00 in0.0 mm
03:19 PM 57.1°F13.9°C 84.7°F29.3°C - 9.2 mph NNW14.8 kmh NNW 10.1 mph16.3 kmh 30.02 in1016.6 mb 0.00 in0.0 mm 0.00 in0.0 mm 0.00 in0.0 mm
03:24 PM 57.0°F13.9°C 84.6°F29.2°C - 10.6 mph NNW17.1 kmh NNW 11.9 mph19.2 kmh 30.02 in1016.6 mb 0.00 in0.0 mm 0.00 in0.0 mm 0.00 in0.0 mm
03:29 PM 57.0°F13.9°C 84.4°F29.1°C - 9.7 mph NNW15.6 kmh NNW 10.7 mph17.2 kmh 30.02 in1016.6 mb 0.00 in0.0 mm 0.00 in0.0 mm 0.00 in0.0 mm
03:34 PM 56.8°F13.8°C 84.3°F29.1°C - 9.4 mph NNW15.1 kmh NNW 10.2 mph16.4 kmh 30.02 in1016.6 mb 0.00 in0.0 mm 0.00 in0.0 mm 0.00 in0.0 mm
03:39 PM 56.8°F13.8°C 84.3°F29.1°C - 8.0 mph NNW12.9 kmh NNW 8.6 mph13.8 kmh 30.02 in1016.6 mb 0.00 in0.0 mm 0.00 in0.0 mm 0.00 in0.0 mm
03:44 PM 56.7°F13.7°C 84.1°F28.9°C - 9.6 mph NW15.4 kmh NW 11.0 mph17.7 kmh 30.02 in1016.6 mb 0.00 in0.0 mm 0.00 in0.0 mm 0.00 in0.0 mm
03:49 PM 56.6°F13.7°C 84.1°F28.9°C - 10.0 mph NW16.1 kmh NW 10.8 mph17.4 kmh 30.02 in1016.6 mb 0.00 in0.0 mm 0.00 in0.0 mm 0.00 in0.0 mm
03:54 PM 56.5°F13.6°C 84.0°F28.9°C - 10.2 mph NW16.4 kmh NW 11.2 mph18.0 kmh 30.02 in1016.6 mb 0.00 in0.0 mm 0.00 in0.0 mm 0.00 in0.0 mm
03:59 PM 56.3°F13.5°C 83.8°F28.8°C - 11.3 mph NW18.2 kmh NW 12.5 mph20.1 kmh 30.02 in1016.6 mb 0.00 in0.0 mm 0.00 in0.0 mm 0.00 in0.0 mm
04:04 PM 56.2°F13.4°C 83.5°F28.6°C - 10.0 mph NW16.1 kmh NW 10.7 mph17.2 kmh 30.02 in1016.6 mb 0.00 in0.0 mm 0.00 in0.0 mm 0.00 in0.0 mm
04:09 PM 56.2°F13.4°C 83.5°F28.6°C - 9.3 mph NW15.0 kmh NW 10.4 mph16.7 kmh 30.03 in1016.9 mb 0.00 in0.0 mm 0.00 in0.0 mm 0.00 in0.0 mm
04:14 PM 56.2°F13.4°C 83.5°F28.6°C - 10.1 mph NW16.3 kmh NW 11.1 mph17.9 kmh 30.02 in1016.6 mb 0.00 in0.0 mm 0.00 in0.0 mm 0.00 in0.0 mm
04:19 PM 56.0°F13.3°C 83.4°F28.6°C - 10.2 mph NW16.4 kmh NW 11.3 mph18.2 kmh 30.03 in1016.9 mb 0.00 in0.0 mm 0.00 in0.0 mm 0.00 in0.0 mm
04:24 PM 55.9°F13.3°C 83.3°F28.5°C - 11.4 mph NNW18.3 kmh NNW 12.9 mph20.8 kmh 30.03 in1016.9 mb 0.00 in0.0 mm 0.00 in0.0 mm 0.00 in0.0 mm
04:29 PM 55.8°F13.2°C 83.1°F28.4°C - 12.8 mph NNW20.6 kmh NNW 14.2 mph22.9 kmh 30.03 in1016.9 mb 0.00 in0.0 mm 0.00 in0.0 mm 0.00 in0.0 mm
04:34 PM 56.0°F13.3°C 83.4°F28.6°C - 12.0 mph NNW19.3 kmh NNW 13.0 mph20.9 kmh 30.03 in1016.9 mb 0.00 in0.0 mm 0.00 in0.0 mm 0.00 in0.0 mm
04:39 PM 56.0°F13.3°C 83.3°F28.5°C - 10.0 mph NNW16.1 kmh NNW 11.1 mph17.9 kmh 30.03 in1016.9 mb 0.00 in0.0 mm 0.00 in0.0 mm 0.00 in0.0 mm
04:44 PM 55.9°F13.3°C 83.3°F28.5°C - 9.5 mph NW15.3 kmh NW 10.5 mph16.9 kmh 30.04 in1017.3 mb 0.00 in0.0 mm 0.00 in0.0 mm 0.00 in0.0 mm
04:49 PM 55.7°F13.2°C 83.0°F28.3°C - 9.9 mph NW15.9 kmh NW 10.8 mph17.4 kmh 30.04 in1017.3 mb 0.00 in0.0 mm 0.00 in0.0 mm 0.00 in0.0 mm
04:54 PM 55.7°F13.2°C 83.0°F28.3°C - 9.3 mph NW15.0 kmh NW 10.4 mph16.7 kmh 30.04 in1017.3 mb 0.00 in0.0 mm 0.00 in0.0 mm 0.00 in0.0 mm
04:59 PM 55.6°F13.1°C 83.0°F28.3°C - 9.8 mph NW15.8 kmh NW 10.7 mph17.2 kmh 30.04 in1017.3 mb 0.00 in0.0 mm 0.00 in0.0 mm 0.00 in0.0 mm
05:04 PM 55.5°F13.1°C 82.9°F28.3°C - 9.7 mph NW15.6 kmh NW 11.0 mph17.7 kmh 30.04 in1017.3 mb 0.00 in0.0 mm 0.00 in0.0 mm 0.00 in0.0 mm
05:09 PM 55.4°F13.0°C 82.8°F28.2°C - 9.2 mph NW14.8 kmh NW 10.3 mph16.6 kmh 30.04 in1017.3 mb 0.00 in0.0 mm 0.00 in0.0 mm 0.00 in0.0 mm
05:14 PM 55.4°F13.0°C 82.8°F28.2°C - 9.2 mph NW14.8 kmh NW 10.0 mph16.1 kmh 30.04 in1017.3 mb 0.00 in0.0 mm 0.00 in0.0 mm 0.00 in0.0 mm
05:19 PM 55.3°F12.9°C 82.6°F28.1°C - 8.7 mph NW14.0 kmh NW 9.9 mph15.9 kmh 30.05 in1017.6 mb 0.00 in0.0 mm 0.00 in0.0 mm 0.00 in0.0 mm
05:24 PM 55.2°F12.9°C 82.5°F28.1°C - 8.8 mph NW14.2 kmh NW 10.0 mph16.1 kmh 30.05 in1017.6 mb 0.00 in0.0 mm 0.00 in0.0 mm 0.00 in0.0 mm
05:29 PM 55.1°F12.8°C 82.4°F28.0°C - 8.8 mph NW14.2 kmh NW 9.7 mph15.6 kmh 30.05 in1017.6 mb 0.00 in0.0 mm 0.00 in0.0 mm 0.00 in0.0 mm
05:34 PM 55.0°F12.8°C 82.3°F27.9°C - 7.7 mph NW12.4 kmh NW 8.4 mph13.5 kmh 30.05 in1017.6 mb 0.00 in0.0 mm 0.00 in0.0 mm 0.00 in0.0 mm
05:39 PM 55.0°F12.8°C 82.3°F27.9°C - 7.0 mph NW11.3 kmh NW 7.9 mph12.7 kmh 30.05 in1017.6 mb 0.00 in0.0 mm 0.00 in0.0 mm 0.00 in0.0 mm
05:44 PM 54.8°F12.7°C 82.0°F27.8°C - 7.3 mph NW11.7 kmh NW 8.2 mph13.2 kmh 30.05 in1017.6 mb 0.00 in0.0 mm 0.00 in0.0 mm 0.00 in0.0 mm
05:49 PM 54.8°F12.7°C 82.1°F27.8°C - 6.3 mph NW10.1 kmh NW 6.9 mph11.1 kmh 30.05 in1017.6 mb 0.00 in0.0 mm 0.00 in0.0 mm 0.00 in0.0 mm
05:54 PM 54.7°F12.6°C 82.0°F27.8°C - 6.4 mph NW10.3 kmh NW 7.2 mph11.6 kmh 30.05 in1017.6 mb 0.00 in0.0 mm 0.00 in0.0 mm 0.00 in0.0 mm
05:59 PM 54.6°F12.6°C 81.9°F27.7°C - 7.4 mph NW11.9 kmh NW 8.0 mph12.9 kmh 30.06 in1017.9 mb 0.00 in0.0 mm 0.00 in0.0 mm 0.00 in0.0 mm
06:04 PM 54.3°F12.4°C 81.4°F27.4°C - 7.1 mph NW11.4 kmh NW 9.3 mph15.0 kmh 30.06 in1017.9 mb 0.00 in0.0 mm 0.00 in0.0 mm 0.01 in0.3 mm
06:09 PM 54.2°F12.3°C 81.3°F27.4°C - 6.0 mph NW9.7 kmh NW 12.8 mph20.6 kmh 30.06 in1017.9 mb 0.00 in0.0 mm 0.00 in0.0 mm 0.01 in0.3 mm
06:14 PM 53.8°F12.1°C 80.8°F27.1°C - 13.3 mph NNW21.4 kmh NNW 15.0 mph24.1 kmh 30.06 in1017.9 mb 0.00 in0.0 mm 0.00 in0.0 mm 0.02 in0.5 mm
06:19 PM 53.7°F12.1°C 80.8°F27.1°C - 12.2 mph NNW19.6 kmh NNW 13.7 mph22.0 kmh 30.06 in1017.9 mb 0.00 in0.0 mm 0.00 in0.0 mm 0.02 in0.5 mm
06:24 PM 53.7°F12.1°C 80.8°F27.1°C - 12.1 mph NNW19.5 kmh NNW 13.9 mph22.4 kmh 30.07 in1018.3 mb 0.00 in0.0 mm 0.00 in0.0 mm 0.02 in0.5 mm
06:29 PM 53.5°F11.9°C 80.6°F27.0°C - 9.6 mph NW15.4 kmh NW 11.1 mph17.9 kmh 30.07 in1018.3 mb 0.00 in0.0 mm 0.00 in0.0 mm 0.02 in0.5 mm
06:34 PM 53.3°F11.8°C 80.4°F26.9°C - 4.7 mph NW7.6 kmh NW 5.7 mph9.2 kmh 30.07 in1018.3 mb 0.00 in0.0 mm 0.00 in0.0 mm 0.02 in0.5 mm
06:39 PM 53.2°F11.8°C 80.3°F26.8°C - 1.2 mph NW1.9 kmh NW 3.2 mph5.1 kmh 30.07 in1018.3 mb 0.00 in0.0 mm 0.00 in0.0 mm 0.02 in0.5 mm
06:44 PM 53.2°F11.8°C 80.3°F26.8°C - 1.7 mph NW2.7 kmh NW 4.7 mph7.6 kmh 30.07 in1018.3 mb 0.00 in0.0 mm 0.00 in0.0 mm 0.02 in0.5 mm
06:49 PM 53.2°F11.8°C 80.3°F26.8°C - 1.9 mph NW3.1 kmh NW 4.1 mph6.6 kmh 30.07 in1018.3 mb 0.00 in0.0 mm 0.00 in0.0 mm 0.02 in0.5 mm
06:54 PM 53.2°F11.8°C 80.3°F26.8°C - Calm Calm 0.3 mph0.5 kmh 30.07 in1018.3 mb 0.00 in0.0 mm 0.00 in0.0 mm 0.02 in0.5 mm
06:59 PM 53.5°F11.9°C 80.6°F27.0°C - 0.3 mph NW0.5 kmh NW 1.2 mph1.9 kmh 30.07 in1018.3 mb 0.00 in0.0 mm 0.00 in0.0 mm 0.02 in0.5 mm
07:04 PM 53.5°F11.9°C 80.5°F26.9°C - 1.6 mph WNW2.6 kmh WNW 3.1 mph5.0 kmh 30.07 in1018.3 mb 0.00 in0.0 mm 0.00 in0.0 mm 0.02 in0.5 mm
07:09 PM 53.4°F11.9°C 80.5°F26.9°C - Calm Calm 0.6 mph1.0 kmh 30.07 in1018.3 mb 0.00 in0.0 mm 0.00 in0.0 mm 0.02 in0.5 mm
07:14 PM 53.2°F11.8°C 80.3°F26.8°C - 0.3 mph W0.5 kmh W 2.1 mph3.4 kmh 30.07 in1018.3 mb 0.00 in0.0 mm 0.00 in0.0 mm 0.02 in0.5 mm
07:19 PM 53.1°F11.7°C 80.1°F26.7°C - 0.1 mph W0.2 kmh W 0.5 mph0.8 kmh 30.07 in1018.3 mb 0.00 in0.0 mm 0.00 in0.0 mm 0.02 in0.5 mm
07:24 PM 53.0°F11.7°C 80.1°F26.7°C - Calm Calm -- 30.07 in1018.3 mb 0.00 in0.0 mm 0.00 in0.0 mm 0.02 in0.5 mm
07:29 PM 52.8°F11.6°C 79.8°F26.6°C - Calm Calm -- 30.07 in1018.3 mb 0.00 in0.0 mm 0.00 in0.0 mm 0.02 in0.5 mm
07:34 PM 52.8°F11.6°C 79.7°F26.5°C - Calm Calm -- 30.07 in1018.3 mb 0.00 in0.0 mm 0.00 in0.0 mm 0.02 in0.5 mm
07:39 PM 52.7°F11.5°C 79.7°F26.5°C - Calm Calm -- 30.07 in1018.3 mb 0.00 in0.0 mm 0.00 in0.0 mm 0.02 in0.5 mm
07:44 PM 52.7°F11.5°C 79.7°F26.5°C - Calm Calm 0.5 mph0.8 kmh 30.07 in1018.3 mb 0.00 in0.0 mm 0.00 in0.0 mm 0.02 in0.5 mm
07:49 PM 52.7°F11.5°C 79.7°F26.5°C - Calm Calm -- 30.07 in1018.3 mb 0.00 in0.0 mm 0.00 in0.0 mm 0.02 in0.5 mm
07:54 PM 52.7°F11.5°C 79.7°F26.5°C - Calm Calm -- 30.08 in1018.6 mb 0.00 in0.0 mm 0.00 in0.0 mm 0.02 in0.5 mm
07:59 PM 52.6°F11.4°C 79.6°F26.4°C - Calm Calm -- 30.08 in1018.6 mb 0.00 in0.0 mm 0.00 in0.0 mm 0.02 in0.5 mm
08:04 PM 52.6°F11.4°C 79.6°F26.4°C - Calm Calm 1.2 mph1.9 kmh 30.08 in1018.6 mb 0.00 in0.0 mm 0.00 in0.0 mm 0.02 in0.5 mm
08:09 PM 52.7°F11.5°C 79.6°F26.4°C - Calm Calm -- 30.08 in1018.6 mb 0.00 in0.0 mm 0.00 in0.0 mm 0.02 in0.5 mm
08:14 PM 53.0°F11.7°C 80.1°F26.7°C - 0.1 mph WNW0.2 kmh WNW 1.1 mph1.8 kmh 30.08 in1018.6 mb 0.00 in0.0 mm 0.00 in0.0 mm 0.02 in0.5 mm
08:19 PM 53.2°F11.8°C 80.3°F26.8°C - 0.4 mph W0.6 kmh W 2.6 mph4.2 kmh 30.08 in1018.6 mb 0.00 in0.0 mm 0.00 in0.0 mm 0.02 in0.5 mm
08:24 PM 53.0°F11.7°C 79.9°F26.6°C - 0.3 mph W0.5 kmh W 1.2 mph1.9 kmh 30.08 in1018.6 mb 0.00 in0.0 mm 0.00 in0.0 mm 0.02 in0.5 mm
08:29 PM 52.7°F11.5°C 79.6°F26.4°C - Calm Calm -- 30.08 in1018.6 mb 0.00 in0.0 mm 0.00 in0.0 mm 0.02 in0.5 mm
08:34 PM 52.5°F11.4°C 79.5°F26.4°C - Calm Calm -- 30.08 in1018.6 mb 0.00 in0.0 mm 0.00 in0.0 mm 0.02 in0.5 mm
08:39 PM 52.5°F11.4°C 79.5°F26.4°C - Calm Calm -- 30.08 in1018.6 mb 0.00 in0.0 mm 0.00 in0.0 mm 0.02 in0.5 mm
08:44 PM 52.5°F11.4°C 79.5°F26.4°C - Calm Calm -- 30.08 in1018.6 mb 0.00 in0.0 mm 0.00 in0.0 mm 0.02 in0.5 mm
08:49 PM 52.3°F11.3°C 79.3°F26.3°C - Calm Calm -- 30.08 in1018.6 mb 0.00 in0.0 mm 0.00 in0.0 mm 0.02 in0.5 mm
08:54 PM 52.5°F11.4°C 79.5°F26.4°C - Calm Calm -- 30.08 in1018.6 mb 0.00 in0.0 mm 0.00 in0.0 mm 0.02 in0.5 mm
08:59 PM 52.3°F11.3°C 79.3°F26.3°C - Calm Calm -- 30.09 in1019.0 mb 0.00 in0.0 mm 0.00 in0.0 mm 0.02 in0.5 mm
09:04 PM 52.3°F11.3°C 79.3°F26.3°C - Calm Calm -- 30.09 in1019.0 mb 0.00 in0.0 mm 0.00 in0.0 mm 0.02 in0.5 mm
09:09 PM 52.2°F11.2°C 79.0°F26.1°C - Calm Calm -- 30.09 in1019.0 mb 0.00 in0.0 mm 0.00 in0.0 mm 0.02 in0.5 mm
09:14 PM 52.2°F11.2°C 79.2°F26.2°C - Calm Calm -- 30.09 in1019.0 mb 0.00 in0.0 mm 0.00 in0.0 mm 0.02 in0.5 mm
09:19 PM 52.3°F11.3°C 79.3°F26.3°C - Calm Calm -- 30.09 in1019.0 mb 0.00 in0.0 mm 0.00 in0.0 mm 0.02 in0.5 mm
09:24 PM 52.5°F11.4°C 79.5°F26.4°C - Calm Calm -- 30.09 in1019.0 mb 0.00 in0.0 mm 0.00 in0.0 mm 0.02 in0.5 mm
09:29 PM 52.5°F11.4°C 79.5°F26.4°C - Calm Calm -- 30.09 in1019.0 mb 0.00 in0.0 mm 0.00 in0.0 mm 0.02 in0.5 mm
09:34 PM 52.6°F11.4°C 79.6°F26.4°C - Calm Calm -- 30.09 in1019.0 mb 0.00 in0.0 mm 0.00 in0.0 mm 0.02 in0.5 mm
09:39 PM 52.6°F11.4°C 79.6°F26.4°C - Calm Calm -- 30.09 in1019.0 mb 0.00 in0.0 mm 0.00 in0.0 mm 0.02 in0.5 mm
09:44 PM 52.6°F11.4°C 79.6°F26.4°C - Calm Calm -- 30.09 in1019.0 mb 0.00 in0.0 mm 0.00 in0.0 mm 0.02 in0.5 mm
09:49 PM 52.5°F11.4°C 79.5°F26.4°C - Calm Calm -- 30.10 in1019.3 mb 0.00 in0.0 mm 0.00 in0.0 mm 0.02 in0.5 mm
09:54 PM 52.5°F11.4°C 79.5°F26.4°C - Calm Calm -- 30.09 in1019.0 mb 0.00 in0.0 mm 0.00 in0.0 mm 0.02 in0.5 mm
09:59 PM 52.5°F11.4°C 79.5°F26.4°C - Calm Calm -- 30.09 in1019.0 mb 0.00 in0.0 mm 0.00 in0.0 mm 0.02 in0.5 mm
10:04 PM 52.6°F11.4°C 79.6°F26.4°C - Calm Calm -- 30.10 in1019.3 mb 0.00 in0.0 mm 0.00 in0.0 mm 0.02 in0.5 mm
10:09 PM 52.6°F11.4°C 79.6°F26.4°C - Calm Calm -- 30.10 in1019.3 mb 0.00 in0.0 mm 0.00 in0.0 mm 0.02 in0.5 mm
10:14 PM 52.6°F11.4°C 79.5°F26.4°C - Calm Calm -- 30.10 in1019.3 mb 0.00 in0.0 mm 0.00 in0.0 mm 0.02 in0.5 mm
10:19 PM 52.6°F11.4°C 79.6°F26.4°C - Calm Calm -- 30.10 in1019.3 mb 0.00 in0.0 mm 0.00 in0.0 mm 0.02 in0.5 mm
10:24 PM 52.6°F11.4°C 79.6°F26.4°C - Calm Calm -- 30.10 in1019.3 mb 0.00 in0.0 mm 0.00 in0.0 mm 0.02 in0.5 mm
10:29 PM 52.6°F11.4°C 79.6°F26.4°C - Calm Calm -- 30.10 in1019.3 mb 0.00 in0.0 mm 0.00 in0.0 mm 0.02 in0.5 mm
10:34 PM 52.7°F11.5°C 79.7°F26.5°C - Calm Calm -- 30.10 in1019.3 mb 0.00 in0.0 mm 0.00 in0.0 mm 0.02 in0.5 mm
10:39 PM 52.7°F11.5°C 79.7°F26.5°C - Calm Calm -- 30.10 in1019.3 mb 0.00 in0.0 mm 0.00 in0.0 mm 0.02 in0.5 mm
10:44 PM 52.7°F11.5°C 79.7°F26.5°C - Calm Calm -- 30.10 in1019.3 mb 0.00 in0.0 mm 0.00 in0.0 mm 0.02 in0.5 mm
10:49 PM 52.7°F11.5°C 79.7°F26.5°C - Calm Calm -- 30.10 in1019.3 mb 0.00 in0.0 mm 0.00 in0.0 mm 0.02 in0.5 mm
10:54 PM 52.7°F11.5°C 79.7°F26.5°C - Calm Calm -- 30.10 in1019.3 mb 0.00 in0.0 mm 0.00 in0.0 mm 0.02 in0.5 mm
10:59 PM 52.8°F11.6°C 79.8°F26.6°C - Calm Calm -- 30.10 in1019.3 mb 0.00 in0.0 mm 0.00 in0.0 mm 0.02 in0.5 mm
11:04 PM 52.9°F11.6°C 79.9°F26.6°C - Calm Calm -- 30.10 in1019.3 mb 0.00 in0.0 mm 0.00 in0.0 mm 0.02 in0.5 mm
11:09 PM 53.0°F11.7°C 80.1°F26.7°C - Calm Calm -- 30.10 in1019.3 mb 0.00 in0.0 mm 0.00 in0.0 mm 0.02 in0.5 mm
11:14 PM 53.1°F11.7°C 80.2°F26.8°C - Calm Calm -- 30.10 in1019.3 mb 0.00 in0.0 mm 0.00 in0.0 mm 0.02 in0.5 mm
11:19 PM 53.1°F11.7°C 80.1°F26.7°C - Calm Calm -- 30.10 in1019.3 mb 0.00 in0.0 mm 0.00 in0.0 mm 0.02 in0.5 mm
11:24 PM 53.1°F11.7°C 80.2°F26.8°C - Calm Calm -- 30.10 in1019.3 mb 0.00 in0.0 mm 0.00 in0.0 mm 0.02 in0.5 mm
11:29 PM 53.1°F11.7°C 80.1°F26.7°C - Calm Calm -- 30.11 in1019.6 mb 0.00 in0.0 mm 0.00 in0.0 mm 0.02 in0.5 mm
11:34 PM 53.1°F11.7°C 80.2°F26.8°C - Calm Calm -- 30.11 in1019.6 mb 0.00 in0.0 mm 0.00 in0.0 mm 0.02 in0.5 mm
11:39 PM 53.1°F11.7°C 80.2°F26.8°C - Calm Calm -- 30.11 in1019.6 mb 0.00 in0.0 mm 0.00 in0.0 mm 0.02 in0.5 mm
11:44 PM 53.2°F11.8°C 80.2°F26.8°C - Calm Calm -- 30.11 in1019.6 mb 0.00 in0.0 mm 0.00 in0.0 mm 0.02 in0.5 mm
11:49 PM 53.2°F11.8°C 80.3°F26.8°C - Calm Calm -- 30.11 in1019.6 mb 0.00 in0.0 mm 0.00 in0.0 mm 0.02 in0.5 mm
11:54 PM 53.3°F11.8°C 80.4°F26.9°C - Calm Calm -- 30.11 in1019.6 mb 0.00 in0.0 mm 0.00 in0.0 mm 0.02 in0.5 mm